Time;durP1;ratioP1;P1;durP2;ratioP2;P2;SDS_P1;SDS_P2;PMS_P1;PMS_P2;Temp;Humidity;BMP_temperature;BMP_pressure;BME280_temperature;BME280_humidity;BME280_pressure;Samples;Min_cycle;Max_cycle;Signal;HPM_P1;HPM_P2
2023/07/12 00:01:01;;;;;;;1.65;1.00;;;;;;;26.85;46.29;100971.66;5033347;28;20072;-27
2023/07/12 00:03:29;;;;;;;3.35;1.58;;;;;;;26.84;45.96;100983.59;5036309;28;20086;-27
2023/07/12 00:05:56;;;;;;;1.48;1.20;;;;;;;26.82;46.21;100983.81;5042314;28;20098;-27
2023/07/12 00:08:26;;;;;;;2.03;1.20;;;;;;;26.82;45.83;100977.53;5043085;28;20095;-27
2023/07/12 00:10:55;;;;;;;2.30;1.38;;;;;;;26.82;46.33;100966.66;5041291;28;20056;-27
2023/07/12 00:13:23;;;;;;;2.83;1.30;;;;;;;26.81;45.96;100960.38;5038012;28;20045;-27
2023/07/12 00:15:51;;;;;;;2.45;1.30;;;;;;;26.80;46.38;100958.69;5038439;28;20394;-28
2023/07/12 00:18:20;;;;;;;2.08;1.13;;;;;;;26.80;46.27;100955.16;5041376;28;20052;-27
2023/07/12 00:20:49;;;;;;;3.25;1.30;;;;;;;26.79;46.19;100959.75;5042386;28;20053;-27
2023/07/12 00:23:18;;;;;;;4.50;1.65;;;;;;;26.77;45.93;100953.66;5037883;28;20077;-27
2023/07/12 00:25:46;;;;;;;2.05;1.25;;;;;;;26.78;46.17;100973.56;5041579;28;20056;-27
2023/07/12 00:28:23;;;;;;;2.47;1.30;;;;;;;26.76;46.37;100965.59;5044513;28;20041;-27
2023/07/12 00:30:51;;;;;;;3.08;1.75;;;;;;;26.76;46.12;100972.91;5038131;28;20124;-27
2023/07/12 00:33:19;;;;;;;2.78;1.20;;;;;;;26.75;46.13;100979.41;5032352;28;20430;-27
2023/07/12 00:35:47;;;;;;;3.17;1.40;;;;;;;26.73;46.28;100973.34;5034899;28;20680;-27
2023/07/12 00:38:19;;;;;;;2.90;1.80;;;;;;;26.72;46.44;100968.94;5039971;28;20050;-27
2023/07/12 00:40:54;;;;;;;1.83;1.23;;;;;;;26.71;45.86;100956.41;5035724;28;20089;-27
2023/07/12 00:43:29;;;;;;;3.15;1.27;;;;;;;26.70;46.04;100958.28;5031289;28;20099;-27
2023/07/12 00:45:58;;;;;;;2.83;1.38;;;;;;;26.70;46.10;100960.19;5034198;28;20053;-27
2023/07/12 00:48:25;;;;;;;1.48;1.17;;;;;;;26.69;45.85;100966.63;5030714;28;20046;-27
2023/07/12 00:50:51;;;;;;;2.00;1.05;;;;;;;26.69;46.39;100950.31;5033020;28;20057;-27
2023/07/12 00:53:21;;;;;;;3.78;1.52;;;;;;;26.68;46.10;100937.78;5035997;28;20083;-27
2023/07/12 00:55:57;;;;;;;1.98;1.30;;;;;;;26.67;45.98;100938.84;5032159;28;20099;-27
2023/07/12 00:58:27;;;;;;;1.77;0.98;;;;;;;26.66;46.29;100927.13;5032302;28;20103;-27
2023/07/12 01:00:55;;;;;;;3.15;1.50;;;;;;;26.65;46.06;100932.75;5030715;28;20045;-27
2023/07/12 01:03:24;;;;;;;2.83;1.25;;;;;;;26.66;45.89;100931.72;5034368;28;20087;-27
2023/07/12 01:05:51;;;;;;;4.28;1.35;;;;;;;26.65;46.26;100932.75;5031977;28;20092;-28
2023/07/12 01:08:20;;;;;;;3.38;1.30;;;;;;;26.63;46.32;100918.53;5032783;28;20041;-27
2023/07/12 01:10:47;;;;;;;3.33;1.50;;;;;;;26.63;46.21;100948.44;5034039;28;20084;-27
2023/07/12 01:13:13;;;;;;;3.08;1.17;;;;;;;26.62;46.20;100977.53;5029583;28;20045;-27
2023/07/12 01:15:40;;;;;;;3.03;1.30;;;;;;;26.62;46.03;100993.84;5029877;28;20122;-28
2023/07/12 01:18:07;;;;;;;2.05;1.42;;;;;;;26.61;46.17;100994.88;5031698;28;20049;-27
2023/07/12 01:20:40;;;;;;;2.20;1.13;;;;;;;26.57;46.13;100997.19;5033696;28;20087;-27
2023/07/12 01:23:06;;;;;;;2.87;1.37;;;;;;;26.57;46.27;101005.34;5029739;28;20332;-27
2023/07/12 01:25:43;;;;;;;3.30;1.38;;;;;;;26.56;46.24;101000.09;5033966;28;20561;-27
2023/07/12 01:28:10;;;;;;;2.35;1.08;;;;;;;26.56;46.02;101002.81;5030487;28;20053;-27
2023/07/12 01:30:38;;;;;;;2.30;1.60;;;;;;;26.53;46.23;100966.03;5037716;28;20055;-27
2023/07/12 01:33:05;;;;;;;3.35;1.35;;;;;;;26.53;46.10;100979.63;5037205;28;20053;-27
2023/07/12 01:35:32;;;;;;;2.97;1.27;;;;;;;26.51;46.11;100984.41;5029862;28;20137;-27
2023/07/12 01:37:58;;;;;;;3.05;1.30;;;;;;;26.51;46.16;101000.72;5037443;28;20076;-27
2023/07/12 01:40:25;;;;;;;3.45;1.13;;;;;;;26.49;46.25;100991.94;5035282;28;20133;-27
2023/07/12 01:42:51;;;;;;;2.08;0.93;;;;;;;26.48;46.25;100975.81;5033163;28;20792;-27
2023/07/12 01:45:18;;;;;;;3.13;1.30;;;;;;;26.47;46.40;100987.75;5035270;28;20077;-27
2023/07/12 01:47:45;;;;;;;2.58;1.30;;;;;;;26.46;46.34;100964.34;5035263;28;20052;-27
2023/07/12 01:50:12;;;;;;;3.30;1.23;;;;;;;26.44;46.63;100929.16;5038565;28;20049;-27
2023/07/12 01:52:38;;;;;;;3.67;1.75;;;;;;;26.45;46.24;100954.47;5036067;28;20060;-27
2023/07/12 01:55:05;;;;;;;2.30;1.25;;;;;;;26.42;46.33;100963.88;5039285;28;20135;-27
2023/07/12 01:57:32;;;;;;;3.50;1.27;;;;;;;26.41;46.36;100954.03;5035144;28;20045;-27
2023/07/12 01:59:58;;;;;;;2.65;1.10;;;;;;;26.41;46.32;100947.75;5036402;28;20053;-27
2023/07/12 02:02:28;;;;;;;3.45;1.75;;;;;;;26.39;46.29;100941.69;5029727;28;20087;-27
2023/07/12 02:04:55;;;;;;;2.97;1.48;;;;;;;26.37;46.36;100928.31;5030516;28;20080;-27
2023/07/12 02:07:21;;;;;;;2.08;1.13;;;;;;;26.36;46.49;100934.78;5032154;28;20045;-27
2023/07/12 02:10:13;;;;;;;2.35;1.08;;;;;;;26.33;46.52;100940.63;5036555;28;20049;-28
2023/07/12 02:12:41;;;;;;;3.13;1.30;;;;;;;26.34;46.55;100890.69;5037187;28;20083;-27
2023/07/12 02:15:08;;;;;;;2.28;1.30;;;;;;;26.33;46.58;100897.16;5027430;28;20045;-27
2023/07/12 02:17:35;;;;;;;3.25;1.25;;;;;;;26.32;46.85;100901.75;5034558;28;20469;-27
2023/07/12 02:20:03;;;;;;;3.78;1.17;;;;;;;26.31;46.52;100929.97;5037342;28;20045;-27
2023/07/12 02:22:34;;;;;;;4.43;1.27;;;;;;;26.30;46.53;100903.03;5030575;28;20498;-28
2023/07/12 02:25:01;;;;;;;3.75;1.20;;;;;;;26.29;46.38;100895.88;5033911;28;20041;-27
2023/07/12 02:27:27;;;;;;;4.03;1.50;;;;;;;26.28;46.62;100897.78;5032985;28;20073;-28
2023/07/12 02:29:54;;;;;;;4.07;1.20;;;;;;;26.27;46.51;100898.00;5038227;28;20041;-27
2023/07/12 02:32:22;;;;;;;3.08;1.10;;;;;;;26.27;46.48;100898.00;5030578;28;20111;-27
2023/07/12 02:34:49;;;;;;;3.08;1.13;;;;;;;26.25;46.47;100905.50;5034594;28;20060;-27
2023/07/12 02:37:17;;;;;;;3.30;1.17;;;;;;;26.24;46.65;100914.69;5032160;28;20068;-27
2023/07/12 02:39:46;;;;;;;4.40;1.58;;;;;;;26.22;46.37;100919.53;5034038;28;20104;-27
2023/07/12 02:42:12;;;;;;;3.42;1.45;;;;;;;26.20;46.66;100930.56;5032548;28;20136;-27
2023/07/12 02:44:40;;;;;;;5.78;1.50;;;;;;;26.19;46.54;100934.34;5029983;28;20084;-27
2023/07/12 02:47:07;;;;;;;2.60;1.08;;;;;;;26.18;46.57;100938.13;5031003;28;20045;-27
2023/07/12 02:49:34;;;;;;;4.45;1.63;;;;;;;26.16;46.60;100945.63;5031995;28;20430;-27
2023/07/12 02:52:01;;;;;;;3.60;1.42;;;;;;;26.16;46.75;100947.50;5030779;28;20103;-27
2023/07/12 02:54:27;;;;;;;4.00;1.38;;;;;;;26.15;46.52;100949.38;5029812;28;20049;-27
2023/07/12 02:56:54;;;;;;;3.50;1.10;;;;;;;26.13;46.63;100948.78;5035170;28;20136;-27
2023/07/12 02:59:20;;;;;;;3.60;1.30;;;;;;;26.12;46.97;100943.53;5030387;28;20092;-27
2023/07/12 03:01:47;;;;;;;4.63;1.40;;;;;;;26.09;46.44;100939.31;5034063;28;20057;-27
2023/07/12 03:04:14;;;;;;;3.80;1.17;;;;;;;26.09;46.63;100940.19;5033394;28;20046;-27
2023/07/12 03:06:41;;;;;;;4.18;1.13;;;;;;;26.08;46.64;100937.66;5037619;28;20052;-27
2023/07/12 03:09:07;;;;;;;3.70;1.13;;;;;;;26.07;46.73;100928.66;5033355;28;20345;-27
2023/07/12 03:11:35;;;;;;;4.38;1.38;;;;;;;26.06;46.64;100931.59;5033659;28;20061;-27
2023/07/12 03:14:01;;;;;;;5.30;1.75;;;;;;;26.05;46.95;100930.78;5036503;28;20188;-27
2023/07/12 03:16:28;;;;;;;3.45;1.50;;;;;;;26.04;46.82;100926.34;5035364;28;20050;-27
2023/07/12 03:18:55;;;;;;;3.72;1.80;;;;;;;26.03;46.64;100927.41;5037049;28;20048;-27
2023/07/12 03:21:22;;;;;;;3.58;1.80;;;;;;;26.03;46.77;100934.72;5037012;28;20396;-27
2023/07/12 03:23:49;;;;;;;3.85;1.50;;;;;;;26.02;46.87;100925.75;5037158;28;20087;-27
2023/07/12 03:26:15;;;;;;;4.28;1.30;;;;;;;26.01;46.78;100926.78;5039897;28;20045;-27
2023/07/12 03:28:42;;;;;;;3.50;1.30;;;;;;;26.00;46.74;100933.25;5041090;28;20111;-27
2023/07/12 03:31:16;;;;;;;3.33;1.27;;;;;;;26.00;46.67;100944.09;5036638;28;20054;-27
2023/07/12 03:33:46;;;;;;;4.50;1.33;;;;;;;25.98;46.81;100946.22;5034075;28;20108;-27
2023/07/12 03:36:14;;;;;;;3.00;1.10;;;;;;;25.97;46.77;100951.81;5036139;28;20733;-27
2023/07/12 03:38:41;;;;;;;3.55;1.20;;;;;;;25.96;46.85;100942.00;5038489;28;20460;-27
2023/07/12 03:41:10;;;;;;;5.05;1.48;;;;;;;25.94;46.52;100950.38;5036602;28;20120;-27
2023/07/12 03:43:37;;;;;;;3.28;1.40;;;;;;;25.93;46.58;100948.69;5030594;28;20056;-27
2023/07/12 03:46:04;;;;;;;3.35;1.35;;;;;;;25.92;46.66;100957.88;5037150;28;20109;-27
2023/07/12 03:48:31;;;;;;;2.85;1.60;;;;;;;25.91;46.88;100948.06;5035171;28;20048;-27
2023/07/12 03:50:59;;;;;;;5.93;1.65;;;;;;;25.89;46.81;100950.16;5032600;28;20041;-27
2023/07/12 03:53:27;;;;;;;4.65;1.35;;;;;;;25.88;46.89;100953.88;5031035;28;20119;-27
2023/07/12 03:56:03;;;;;;;3.95;1.27;;;;;;;25.87;46.89;100952.22;5035156;28;20513;-27
2023/07/12 03:58:35;;;;;;;4.45;1.70;;;;;;;25.85;46.88;100948.88;5034478;28;20049;-27
2023/07/12 04:01:05;;;;;;;3.40;1.30;;;;;;;25.85;46.89;100951.59;5028833;28;20103;-27
2023/07/12 04:03:32;;;;;;;3.88;1.48;;;;;;;25.84;46.84;100955.34;5030641;28;20076;-27
2023/07/12 04:05:59;;;;;;;6.30;1.20;;;;;;;25.82;46.96;100950.13;5025713;28;20049;-27
2023/07/12 04:08:25;;;;;;;3.83;1.25;;;;;;;25.81;46.75;100950.34;5032887;28;20060;-27
2023/07/12 04:10:54;;;;;;;5.18;1.60;;;;;;;25.81;46.79;100958.47;5037714;28;20046;-27
2023/07/12 04:13:23;;;;;;;3.28;1.15;;;;;;;25.81;46.93;100950.34;5033453;28;20045;-27
2023/07/12 04:15:54;;;;;;;5.90;1.60;;;;;;;25.80;46.99;100957.63;5032514;28;20049;-27
2023/07/12 04:18:23;;;;;;;5.28;1.45;;;;;;;25.80;46.63;100962.22;5031771;28;20076;-27
2023/07/12 04:20:50;;;;;;;4.07;1.48;;;;;;;25.78;46.82;100959.72;5030089;28;20045;-27
2023/07/12 04:23:17;;;;;;;3.60;1.77;;;;;;;25.78;47.01;100967.84;5031384;28;20091;-27
2023/07/12 04:25:43;;;;;;;4.85;1.95;;;;;;;25.77;46.67;100971.63;5037857;28;20057;-27
2023/07/12 04:28:10;;;;;;;4.93;1.80;;;;;;;25.77;46.89;100968.00;5046587;28;20052;-27
2023/07/12 04:30:37;;;;;;;4.78;1.75;;;;;;;25.77;46.82;100973.44;5034913;28;20092;-27
2023/07/12 04:33:05;;;;;;;5.72;1.90;;;;;;;25.78;47.11;100975.16;5039068;28;20049;-27
2023/07/12 04:35:37;;;;;;;4.90;1.60;;;;;;;25.76;46.91;100969.88;5036675;28;20045;-27
2023/07/12 04:38:03;;;;;;;5.07;1.50;;;;;;;25.76;46.74;100980.75;5040302;28;20508;-27
2023/07/12 04:40:30;;;;;;;3.40;1.40;;;;;;;25.77;47.11;100985.19;5032611;28;20623;-27
2023/07/12 04:42:57;;;;;;;4.00;1.70;;;;;;;25.78;46.97;100977.88;5031767;28;20347;-27
2023/07/12 04:45:23;;;;;;;4.28;1.40;;;;;;;25.77;46.87;100982.47;5029503;28;20095;-27
2023/07/12 04:47:50;;;;;;;2.92;1.65;;;;;;;25.77;46.74;100996.06;5032670;28;20056;-27
2023/07/12 04:50:17;;;;;;;4.05;1.35;;;;;;;25.76;46.70;100997.03;5033078;28;20128;-27
2023/07/12 04:52:44;;;;;;;4.53;1.48;;;;;;;25.76;46.92;101002.47;5029426;28;20053;-27
2023/07/12 04:55:26;;;;;;;7.07;2.58;;;;;;;25.75;47.15;100997.25;5034619;28;20053;-27
2023/07/12 04:57:54;;;;;;;6.93;1.80;;;;;;;25.76;46.82;100982.63;5033902;28;20385;-28
2023/07/12 05:00:23;;;;;;;5.07;1.60;;;;;;;25.75;46.83;100979.09;5032744;28;20033;-27
2023/07/12 05:02:51;;;;;;;4.88;1.75;;;;;;;25.75;46.75;100976.38;5031426;28;20100;-27
2023/07/12 05:05:18;;;;;;;2.97;1.40;;;;;;;25.75;46.66;100986.38;5033202;28;20437;-27
2023/07/12 05:07:44;;;;;;;4.15;1.52;;;;;;;25.77;46.75;100995.16;5029009;28;20119;-27
2023/07/12 05:10:11;;;;;;;3.22;1.40;;;;;;;25.76;46.49;100997.03;5033536;28;20041;-30
2023/07/12 05:12:40;;;;;;;4.55;1.60;;;;;;;25.77;46.42;100998.78;5034285;28;20132;-27
2023/07/12 05:15:08;;;;;;;5.70;2.35;;;;;;;25.78;46.68;101002.31;5033006;28;20388;-27
2023/07/12 05:17:35;;;;;;;4.75;1.55;;;;;;;25.78;46.28;101002.31;5036477;28;20123;-27
2023/07/12 05:20:04;;;;;;;5.22;1.77;;;;;;;25.78;46.71;101002.31;5035005;28;20054;-27
2023/07/12 05:22:31;;;;;;;5.93;1.40;;;;;;;25.77;46.68;101000.59;5032162;28;20053;-27
2023/07/12 05:24:58;;;;;;;5.57;1.48;;;;;;;25.75;46.64;101006.22;5034292;28;20053;-27
2023/07/12 05:27:26;;;;;;;4.38;1.60;;;;;;;25.75;46.73;101005.41;5033297;28;20315;-27
2023/07/12 05:29:53;;;;;;;5.07;1.55;;;;;;;25.74;46.59;101004.56;5032306;28;20041;-27
2023/07/12 05:32:20;;;;;;;4.43;1.58;;;;;;;25.76;46.44;101009.78;5032463;28;20076;-27
2023/07/12 05:34:46;;;;;;;5.60;1.80;;;;;;;25.76;46.82;101012.50;5030673;28;20097;-27
2023/07/12 05:37:14;;;;;;;5.63;2.05;;;;;;;25.76;46.44;101007.91;5031831;28;20052;-27
2023/07/12 05:39:40;;;;;;;6.13;1.73;;;;;;;25.77;46.51;101008.72;5031604;28;20045;-27
2023/07/12 05:42:07;;;;;;;5.88;1.77;;;;;;;25.77;46.62;101009.63;5031056;28;20053;-27
2023/07/12 05:44:34;;;;;;;5.10;2.08;;;;;;;25.77;46.63;101011.44;5031539;28;20084;-27
2023/07/12 05:47:01;;;;;;;6.25;1.95;;;;;;;25.77;46.57;101012.34;5034568;28;20430;-27
2023/07/12 05:49:28;;;;;;;4.80;1.20;;;;;;;25.77;46.74;101015.06;5036963;28;20060;-27
2023/07/12 05:51:54;;;;;;;3.97;1.42;;;;;;;25.77;46.62;101016.88;5036640;28;20053;-27
2023/07/12 05:54:21;;;;;;;4.68;1.58;;;;;;;25.75;46.49;101014.38;5034698;28;20438;-27
2023/07/12 05:56:48;;;;;;;6.00;1.38;;;;;;;25.76;46.66;101015.22;5037190;28;20123;-27
2023/07/12 05:59:15;;;;;;;5.15;1.90;;;;;;;25.76;46.67;101018.75;5038150;28;20437;-27
2023/07/12 06:01:41;;;;;;;4.75;1.90;;;;;;;25.75;46.70;101025.25;5037461;28;20123;-27
2023/07/12 06:04:10;;;;;;;6.75;1.88;;;;;;;25.74;46.60;101023.56;5037466;28;20131;-27
2023/07/12 06:06:38;;;;;;;6.25;1.75;;;;;;;25.74;46.69;101033.59;5038870;28;20343;-27
2023/07/12 06:09:06;;;;;;;4.55;1.58;;;;;;;25.76;46.76;101028.78;5034819;28;20049;-27
2023/07/12 06:11:32;;;;;;;5.78;1.70;;;;;;;25.77;46.65;101030.47;5033619;28;20045;-27
2023/07/12 06:13:59;;;;;;;5.53;1.70;;;;;;;25.77;46.62;101019.59;5035672;28;20100;-27
2023/07/12 06:16:26;;;;;;;6.88;1.85;;;;;;;25.78;46.61;101026.75;5036153;28;20118;-27
2023/07/12 06:18:53;;;;;;;6.05;1.98;;;;;;;25.77;46.61;101036.78;5037695;28;20054;-29
2023/07/12 06:21:20;;;;;;;8.18;1.98;;;;;;;25.78;46.58;101029.47;5039642;28;20042;-27
2023/07/12 06:23:46;;;;;;;5.45;1.80;;;;;;;25.77;46.58;101044.94;5029480;28;20449;-27
2023/07/12 06:26:13;;;;;;;5.43;2.08;;;;;;;25.75;46.57;101046.97;5035948;28;20056;-28
2023/07/12 06:28:40;;;;;;;4.45;1.73;;;;;;;25.76;46.70;101042.38;5032912;28;20053;-28
2023/07/12 06:31:06;;;;;;;5.60;1.45;;;;;;;25.76;46.77;101042.38;5037167;28;20084;-28
2023/07/12 06:33:33;;;;;;;4.57;1.30;;;;;;;25.77;46.60;101049.47;5033459;28;20100;-28
2023/07/12 06:36:00;;;;;;;4.05;1.10;;;;;;;25.78;46.66;101046.59;5037903;28;20128;-28
2023/07/12 06:38:27;;;;;;;5.70;1.73;;;;;;;25.78;46.69;101053.91;5038596;28;20377;-29
2023/07/12 06:40:54;;;;;;;4.97;1.90;;;;;;;25.80;46.64;101043.66;5033338;28;20376;-29
2023/07/12 06:43:22;;;;;;;4.70;1.90;;;;;;;25.80;46.68;101039.06;5038181;28;20053;-29
2023/07/12 06:45:49;;;;;;;4.90;1.60;;;;;;;25.82;46.80;101055.19;5029419;28;20400;-29
2023/07/12 06:48:16;;;;;;;6.30;2.40;;;;;;;25.84;46.41;101053.09;5027616;28;20053;-29
2023/07/12 06:50:42;;;;;;;3.78;1.80;;;;;;;25.84;46.59;101059.34;5029204;28;20047;-29
2023/07/12 06:53:09;;;;;;;3.83;1.40;;;;;;;25.86;46.59;101052.91;5036271;28;20089;-29
2023/07/12 06:55:41;;;;;;;4.57;1.30;;;;;;;25.87;46.51;101065.44;5035988;28;20087;-29
2023/07/12 06:58:08;;;;;;;4.65;1.92;;;;;;;25.89;46.53;101066.06;5035727;28;20053;-29
2023/07/12 07:00:34;;;;;;;4.25;1.48;;;;;;;25.91;46.49;101067.56;5035058;28;20142;-29
2023/07/12 07:03:01;;;;;;;5.30;1.80;;;;;;;25.93;46.36;101070.94;5034404;28;20037;-29
2023/07/12 07:05:28;;;;;;;4.80;1.48;;;;;;;25.92;46.49;101066.50;5032907;28;20046;-29
2023/07/12 07:07:54;;;;;;;6.20;1.63;;;;;;;25.94;46.76;101056.28;5033699;28;20087;-29
2023/07/12 07:10:21;;;;;;;5.78;1.55;;;;;;;25.95;46.39;101057.13;5033224;28;20413;-29
2023/07/12 07:12:47;;;;;;;4.95;1.52;;;;;;;25.96;46.28;101059.63;5037533;28;20041;-29
2023/07/12 07:15:14;;;;;;;2.95;1.30;;;;;;;25.96;46.46;101058.81;5041188;28;20099;-28
2023/07/12 07:17:41;;;;;;;6.18;1.75;;;;;;;25.95;46.51;101074.25;5039288;28;20441;-29
2023/07/12 07:20:08;;;;;;;3.90;1.50;;;;;;;25.96;46.33;101070.50;5038849;28;20053;-29
2023/07/12 07:22:35;;;;;;;6.60;2.17;;;;;;;25.97;46.35;101076.75;5036721;28;20084;-29
2023/07/12 07:25:01;;;;;;;5.22;1.42;;;;;;;25.97;46.39;101072.19;5042237;28;20072;-29
2023/07/12 07:27:41;;;;;;;5.28;1.75;;;;;;;25.99;46.47;101080.13;5036933;28;20337;-29
2023/07/12 07:30:08;;;;;;;4.82;1.85;;;;;;;25.98;46.45;101092.03;5040277;28;20038;-29
2023/07/12 07:32:35;;;;;;;5.55;2.05;;;;;;;25.98;46.44;101098.31;5037681;28;20107;-29
2023/07/12 07:35:02;;;;;;;7.50;1.55;;;;;;;25.99;46.55;101105.41;5040660;28;20075;-29
2023/07/12 07:37:28;;;;;;;5.90;1.50;;;;;;;26.00;46.43;101106.25;5037561;28;20468;-29
2023/07/12 07:39:55;;;;;;;3.63;1.30;;;;;;;26.02;46.51;101098.75;5037201;28;20417;-29
2023/07/12 07:42:22;;;;;;;3.45;1.60;;;;;;;26.02;46.55;101094.16;5036381;28;20128;-29
2023/07/12 07:44:48;;;;;;;3.80;1.73;;;;;;;26.05;46.40;101092.91;5036035;28;20046;-29
2023/07/12 07:47:15;;;;;;;3.53;1.42;;;;;;;26.06;46.70;101092.72;5038978;28;20092;-29
2023/07/12 07:49:41;;;;;;;4.72;1.77;;;;;;;26.09;46.39;101094.16;5036721;28;20137;-29
2023/07/12 07:52:08;;;;;;;7.07;1.70;;;;;;;26.11;46.34;101089.38;5033860;28;20355;-29
2023/07/12 07:54:35;;;;;;;5.50;1.65;;;;;;;26.14;46.30;101112.63;5040364;28;20041;-29
2023/07/12 07:57:02;;;;;;;7.95;1.85;;;;;;;26.15;46.11;101112.41;5039605;28;20054;-29
2023/07/12 07:59:28;;;;;;;6.68;1.73;;;;;;;26.15;46.20;101122.44;5038959;28;20049;-29
2023/07/12 08:01:55;;;;;;;5.40;1.95;;;;;;;26.17;46.09;101123.06;5039367;28;20107;-29
2023/07/12 08:04:22;;;;;;;5.18;1.50;;;;;;;26.18;46.22;101127.47;5033687;28;20081;-27
2023/07/12 08:06:49;;;;;;;6.32;1.83;;;;;;;26.18;45.86;101122.88;5033978;28;20053;-28
2023/07/12 08:09:16;;;;;;;5.18;1.92;;;;;;;26.20;46.29;101128.94;5036290;28;20587;-28
2023/07/12 08:11:43;;;;;;;6.50;1.60;;;;;;;26.22;46.33;101128.75;5034507;28;20049;-28
2023/07/12 08:14:09;;;;;;;6.05;1.77;;;;;;;26.24;46.04;101134.81;5037479;28;20342;-28
2023/07/12 08:16:37;;;;;;;4.20;1.40;;;;;;;26.25;46.06;101147.34;5033448;28;20057;-28
2023/07/12 08:19:04;;;;;;;4.63;1.70;;;;;;;26.26;46.01;101157.19;5037418;28;20345;-28
2023/07/12 08:21:42;;;;;;;5.90;1.70;;;;;;;26.27;46.06;101164.31;5034789;28;20045;-28
2023/07/12 08:24:09;;;;;;;7.20;1.55;;;;;;;26.26;45.93;101168.91;5035337;28;20060;-28
2023/07/12 08:26:36;;;;;;;8.38;1.70;;;;;;;26.28;46.44;101155.09;5034819;28;20103;-28
2023/07/12 08:29:04;;;;;;;10.40;2.20;;;;;;;26.27;46.05;101164.31;5036361;28;20127;-28
2023/07/12 08:31:30;;;;;;;5.70;1.73;;;;;;;26.27;46.33;101162.41;5032586;28;20041;-28
2023/07/12 08:33:57;;;;;;;8.95;2.22;;;;;;;26.26;46.47;101163.47;5033637;28;20100;-28
2023/07/12 08:36:24;;;;;;;9.50;2.03;;;;;;;26.27;46.47;101162.41;5033214;28;20061;-28
2023/07/12 08:38:51;;;;;;;9.40;2.13;;;;;;;26.27;46.48;101158.88;5029181;28;20080;-28
2023/07/12 08:41:21;;;;;;;11.77;1.92;;;;;;;26.26;46.59;101173.50;5028953;28;20053;-28
2023/07/12 08:43:48;;;;;;;12.52;2.63;;;;;;;26.27;46.57;101164.31;5028013;28;20049;-28
2023/07/12 08:46:24;;;;;;;9.70;2.00;;;;;;;26.28;46.49;101174.13;5031828;28;20384;-28
2023/07/12 08:48:54;;;;;;;8.38;2.00;;;;;;;26.29;46.34;101167.63;5033325;28;20456;-28
2023/07/12 08:51:30;;;;;;;6.05;2.03;;;;;;;26.29;46.51;101181.22;5034936;28;20049;-28
2023/07/12 08:53:57;;;;;;;6.35;2.05;;;;;;;26.32;46.54;101178.13;5034825;28;20068;-28
2023/07/12 08:56:25;;;;;;;13.35;2.70;;;;;;;26.33;46.54;101177.94;5031819;28;20120;-28
2023/07/12 08:58:53;;;;;;;11.00;3.22;;;;;;;26.33;46.86;101177.06;5031733;28;20045;-28
2023/07/12 09:01:44;;;;;;;14.15;3.40;;;;;;;26.31;46.87;101192.75;5036153;28;20041;-28
2023/07/12 09:04:27;;;;;;;12.70;4.07;;;;;;;26.32;47.13;101206.13;5032839;28;20046;-28
2023/07/12 09:06:56;;;;;;;16.33;4.13;;;;;;;26.33;47.23;101196.97;5032238;28;20045;-28
2023/07/12 09:09:26;;;;;;;15.88;3.53;;;;;;;26.36;47.29;101200.31;5035888;28;20049;-28
2023/07/12 09:11:54;;;;;;;16.88;3.13;;;;;;;26.36;47.45;101190.25;5036286;28;20052;-28
2023/07/12 09:14:23;;;;;;;11.25;3.65;;;;;;;26.35;47.26;101194.03;5033735;28;20102;-28
2023/07/12 09:16:58;;;;;;;14.77;3.22;;;;;;;26.36;47.41;101195.69;5035659;28;20103;-28
2023/07/12 09:19:37;;;;;;;14.10;3.67;;;;;;;26.37;47.18;101205.53;5034538;28;20045;-28
2023/07/12 09:22:14;;;;;;;15.82;2.67;;;;;;;26.37;47.23;101197.38;5029100;28;20571;-28
2023/07/12 09:24:43;;;;;;;6.15;2.80;;;;;;;26.39;47.27;101202.63;5029161;28;20083;-28
2023/07/12 09:27:16;;;;;;;9.07;2.20;;;;;;;26.40;47.37;101202.41;5036778;28;20045;-28
2023/07/12 09:29:43;;;;;;;10.95;2.63;;;;;;;26.40;47.39;101204.28;5034331;28;20140;-28
2023/07/12 09:32:23;;;;;;;8.70;1.98;;;;;;;26.39;46.73;101194.47;5033127;28;20061;-28
2023/07/12 09:34:50;;;;;;;9.35;2.70;;;;;;;26.42;46.93;101204.94;5034282;28;20057;-28
2023/07/12 09:37:22;;;;;;;10.57;2.78;;;;;;;26.43;46.87;101193.03;5031913;28;20094;-28
2023/07/12 09:40:01;;;;;;;11.60;2.47;;;;;;;26.45;46.79;101189.09;5032824;28;20143;-28
2023/07/12 09:42:29;;;;;;;9.23;2.50;;;;;;;26.46;46.71;101192.66;5028691;28;20049;-28
2023/07/12 09:44:58;;;;;;;11.13;2.78;;;;;;;26.47;46.65;101197.06;5035393;28;20132;-28
2023/07/12 09:47:30;;;;;;;8.45;2.50;;;;;;;26.48;46.43;101202.28;5034390;28;20425;-28
2023/07/12 09:50:26;;;;;;;6.43;2.08;;;;;;;26.50;46.33;101202.94;5034939;28;20045;-28
2023/07/12 09:53:31;;;;;;;6.80;2.05;;;;;;;26.55;46.07;101200.44;5032916;28;20099;-28
2023/07/12 09:56:08;;;;;;;7.15;2.10;;;;;;;26.57;45.81;101198.38;4971685;28;20042;-28
2023/07/12 09:58:47;;;;;;;11.43;2.00;;;;;;;26.61;45.64;101206.09;4969453;28;20051;-28
2023/07/12 10:01:27;;;;;;;8.50;1.88;;;;;;;26.63;45.58;101206.75;4999704;28;20091;-28
2023/07/12 10:03:56;;;;;;;8.77;1.85;;;;;;;26.66;45.65;101206.34;5026337;28;20381;-28
2023/07/12 10:06:48;;;;;;;10.15;2.47;;;;;;;26.68;45.87;101199.66;5039770;28;20048;-28
2023/07/12 10:09:31;;;;;;;7.00;1.92;;;;;;;26.70;45.42;101207.63;5041145;28;20049;-28
2023/07/12 10:12:03;;;;;;;7.95;1.90;;;;;;;26.71;45.41;101209.31;5039145;28;20492;-28
2023/07/12 10:14:37;;;;;;;3.42;1.38;;;;;;;26.71;45.11;101209.31;5041665;28;20045;-28
2023/07/12 10:17:05;;;;;;;5.75;1.35;;;;;;;26.70;45.19;101199.47;5035820;28;20504;-28
2023/07/12 10:19:38;;;;;;;3.58;1.45;;;;;;;26.71;45.52;101203.88;5031961;28;20045;-28
2023/07/12 10:22:16;;;;;;;5.93;1.73;;;;;;;26.71;45.31;101220.19;5032461;28;20049;-28
2023/07/12 10:24:48;;;;;;;5.22;1.60;;;;;;;26.73;45.16;101212.63;5033024;28;20052;-28
2023/07/12 10:27:23;;;;;;;5.68;1.50;;;;;;;26.73;44.98;101210.75;5041302;28;20049;-28
2023/07/12 10:30:08;;;;;;;5.07;1.65;;;;;;;26.75;44.93;101214.13;5041623;28;20059;-28
2023/07/12 10:32:59;;;;;;;7.38;1.52;;;;;;;26.77;44.96;101219.34;5036242;28;20663;-28
2023/07/12 10:35:44;;;;;;;5.10;1.27;;;;;;;26.76;44.90;101223.13;5034762;28;21235;-28
2023/07/12 10:38:17;;;;;;;7.95;1.48;;;;;;;26.76;44.75;101220.41;5034546;28;20103;-28
2023/07/12 10:41:05;;;;;;;4.55;1.08;;;;;;;26.76;44.94;101217.69;5028626;28;20057;-28
2023/07/12 10:43:44;;;;;;;8.45;1.98;;;;;;;26.79;44.71;101223.56;5030796;28;20077;-28
2023/07/12 10:46:34;;;;;;;4.00;1.10;;;;;;;26.80;44.56;101221.69;5033583;28;20069;-28
2023/07/12 10:49:15;;;;;;;5.70;1.30;;;;;;;26.81;44.78;101229.66;5030008;28;20049;-28
2023/07/12 10:51:45;;;;;;;6.80;1.83;;;;;;;26.82;44.88;101236.75;5031154;28;20049;-28
2023/07/12 10:54:31;;;;;;;4.47;1.20;;;;;;;26.81;44.77;101221.50;5029537;28;20053;-28
2023/07/12 10:57:26;;;;;;;5.40;1.23;;;;;;;26.80;44.69;101227.13;5031494;28;20454;-28
2023/07/12 11:00:03;;;;;;;4.47;1.08;;;;;;;26.80;44.61;101236.09;5028731;28;20077;-28
2023/07/12 11:02:43;;;;;;;5.38;1.30;;;;;;;26.77;44.98;101236.50;5030784;28;20077;-28
2023/07/12 11:05:35;;;;;;;3.53;1.23;;;;;;;26.79;44.71;101242.59;5031747;28;20068;-28
2023/07/12 11:08:03;;;;;;;4.13;1.17;;;;;;;26.81;44.55;101250.53;5033861;28;20053;-28
2023/07/12 11:10:35;;;;;;;6.30;1.50;;;;;;;26.79;44.62;101250.75;5031223;28;20060;-28
2023/07/12 11:13:13;;;;;;;8.20;1.40;;;;;;;26.77;44.23;101249.28;5032587;28;20048;-28
2023/07/12 11:15:57;;;;;;;2.42;1.00;;;;;;;26.78;44.64;101249.09;5029168;28;20141;-28
2023/07/12 11:18:36;;;;;;;6.40;1.67;;;;;;;26.76;44.31;101253.88;5030468;28;20111;-28
2023/07/12 11:21:06;;;;;;;3.33;1.10;;;;;;;26.77;44.30;101257.44;5033357;28;20123;-28
2023/07/12 11:23:35;;;;;;;6.57;1.10;;;;;;;26.79;44.33;101250.75;5029952;28;20053;-28
2023/07/12 11:26:23;;;;;;;5.78;1.60;;;;;;;26.80;44.37;101249.72;5034548;28;20045;-28
2023/07/12 11:28:50;;;;;;;1.40;0.98;;;;;;;26.84;44.36;101252.88;5034275;28;20069;-28
2023/07/12 11:31:19;;;;;;;4.47;1.38;;;;;;;26.85;44.41;101264.59;5036311;28;20098;-28
2023/07/12 11:34:04;;;;;;;8.38;1.38;;;;;;;26.84;44.16;101274.63;5034483;28;20045;-28
2023/07/12 11:36:35;;;;;;;4.55;1.45;;;;;;;26.83;44.11;101260.19;5035963;28;20084;-28